Portada
METAR-TAF:

METAR-TAF

Aeropuertos :

Clermont-Ferrand, Francia

Aeropuerto de Clermont-Ferrand/Auvergne

latitud: 45-47N, longitud: 003-10E, altitud: 332 m

Observación

El informe se hizo hace 19 minutos, a las 11:00 UTC
Viento 18 kt del sur
Temperatura 17°C
Humedad 55%
Presión 1013 hPa
Visibilidad 10 km o más
sin nubes por debajo de 1500 m y sin presencia de cumulonimbus.

METAR: LFLC 231100Z AUTO 17018KT CAVOK 17/08 Q1013 TEMPO 17016G28KT

Hora: 12:19 (11:19 UTC)

Pronóstico

El informe se hizo hace 3 horas y 19 minutos, a las 08:00 UTC
Pronóstico válido del 23 a las 09 UTC al 24 a las 09 UTC
Viento 16 kt del sur
Visibilidad 10 km o más
sin nubes por debajo de 1500 m y sin presencia de cumulonimbus.
Temporalmente
del 23 a las 09 UTC al 23 a las 15 UTC
Viento 16 kt del sur con ráfagas de 28 kt

TAF: LFLC 230800Z 2309/2409 17016KT CAVOK TEMPO 2309/2315 17016G28KT

Observaciones y pronósticos meteorológicos de más de 4000 aeropuertos (mensajes METAR y TAF).

Los puntos amarillos y rojos representan las estaciones disponibles.

Ponga el ratón en el punto deseado para ver el nombre de la estación.

Haga clic para ver las observaciones y los pronósticos meteorológicos.

Para cambiar el mapa : haga clic en los botones verdes con una cruz de color negro para hacer un zoom, en el botón verde con un guión para alejar o en las flechas verdes para mapas adyacentes.


METAR-TAF: